Time;durP1;ratioP1;P1;durP2;ratioP2;P2;SDS_P1;SDS_P2;PMS_P1;PMS_P2;Temp;Humidity;BMP_temperature;BMP_pressure;BME280_temperature;BME280_humidity;BME280_pressure;Samples;Min_cycle;Max_cycle;Signal;HPM_P1;HPM_P2
2023/09/30 00:01:19;;;;;;;6.30;2.92;;;;;;;25.44;32.97;96939.81;6096672;23;20070;-29
2023/09/30 00:17:11;;;;;;;7.07;2.80;;;;;;;25.49;32.53;96941.78;6123402;23;20032;-30
2023/09/30 00:33:03;;;;;;;4.07;2.70;;;;;;;25.58;32.49;96944.25;6125948;23;20056;-29
2023/09/30 01:03:14;;;;;;;5.70;3.30;;;;;;;25.30;32.67;96930.53;6125708;23;20070;-28
2023/09/30 01:19:07;;;;;;;3.80;3.03;;;;;;;25.28;32.82;96906.06;6125063;23;20065;-28
2023/09/30 01:32:24;;;;;;;6.47;3.25;;;;;;;25.39;32.51;96886.56;6125566;23;20494;-29
2023/09/30 01:34:49;;;;;;;5.05;3.05;;;;;;;25.38;32.77;96892.63;6125744;23;20054;-28
2023/09/30 01:47:35;;;;;;;5.88;2.92;;;;;;;25.33;32.74;96891.41;6125638;23;20097;-28
2023/09/30 02:03:29;;;;;;;5.00;3.50;;;;;;;25.22;33.24;96913.66;6125486;23;20503;-28
2023/09/30 02:19:21;;;;;;;4.65;2.67;;;;;;;25.30;33.67;96916.66;6123809;23;20081;-29
2023/09/30 02:48:40;;;;;;;8.85;3.50;;;;;;;25.19;33.69;96909.16;6127146;23;20080;-29
2023/09/30 02:51:10;;;;;;;6.00;3.28;;;;;;;24.91;34.20;96905.72;6127279;23;20010;-29
2023/09/30 03:04:07;;;;;;;7.18;3.20;;;;;;;25.08;34.07;96903.66;6126781;23;20450;-28
2023/09/30 03:20:01;;;;;;;5.75;3.13;;;;;;;25.09;34.08;96888.50;6125578;23;20029;-28
2023/09/30 03:22:27;;;;;;;6.38;3.05;;;;;;;25.09;34.23;96884.97;6126756;23;20009;-28
2023/09/30 03:35:00;;;;;;;5.03;3.25;;;;;;;25.13;34.27;96877.13;6127064;23;20064;-28
2023/09/30 03:50:53;;;;;;;7.82;3.30;;;;;;;25.05;34.59;96890.78;6126301;23;20012;-29
2023/09/30 04:04:09;;;;;;;7.95;3.50;;;;;;;24.83;34.95;96893.63;6126544;23;20475;-29
2023/09/30 04:20:02;;;;;;;6.95;3.70;;;;;;;24.96;34.63;96885.53;6124961;23;20113;-29
2023/09/30 04:35:54;;;;;;;4.40;2.90;;;;;;;24.89;34.01;96884.03;6125903;23;20017;-29
2023/09/30 04:51:49;;;;;;;5.13;3.03;;;;;;;24.77;33.00;96881.81;6126037;23;20060;-28
2023/09/30 05:04:45;;;;;;;7.80;2.67;;;;;;;24.75;32.44;96898.19;6126171;23;20291;-28
2023/09/30 05:20:38;;;;;;;3.80;2.85;;;;;;;24.83;32.26;96910.28;6124753;23;20462;-29
2023/09/30 05:36:43;;;;;;;6.65;3.13;;;;;;;24.67;33.01;96912.59;6125415;23;20360;-29
2023/09/30 05:39:10;;;;;;;5.88;3.08;;;;;;;24.61;33.25;96914.63;6126094;23;20484;-29
2023/09/30 05:41:37;;;;;;;6.57;2.90;;;;;;;24.75;32.97;96920.38;6126100;23;20029;-28
2023/09/30 05:50:46;;;;;;;6.03;3.40;;;;;;;24.75;32.82;96923.16;6125469;23;20020;-28
2023/09/30 06:06:38;;;;;;;4.05;2.85;;;;;;;24.82;33.42;96925.41;6125494;23;20021;-29
2023/09/30 06:22:30;;;;;;;8.10;3.42;;;;;;;24.97;33.22;96943.28;6126111;23;20100;-28
2023/09/30 06:35:53;;;;;;;6.55;4.50;;;;;;;24.81;33.53;96948.88;6127146;23;20090;-28
2023/09/30 06:38:22;;;;;;;5.90;3.13;;;;;;;24.98;33.35;96953.13;6127858;23;20025;-28
2023/09/30 06:51:06;;;;;;;7.18;2.90;;;;;;;24.92;33.71;96951.59;6126679;23;20016;-29
2023/09/30 07:07:48;;;;;;;;;;;;;;;24.87;34.15;96971.78;6127436;23;20092;-28
2023/09/30 07:23:48;;;;;;;9.13;2.90;;;;;;;25.04;34.52;96987.16;6126713;23;20459;-30
2023/09/30 07:36:37;;;;;;;4.88;2.63;;;;;;;25.19;34.18;96997.22;6126397;23;20021;-28
2023/09/30 07:52:30;;;;;;;4.88;2.88;;;;;;;25.15;33.87;97013.38;6126542;23;20324;-28
2023/09/30 08:08:24;;;;;;;6.13;3.15;;;;;;;25.41;33.54;97019.31;6126248;23;20072;-29
2023/09/30 08:38:37;;;;;;;8.55;3.80;;;;;;;25.77;33.54;97040.38;6125804;23;20076;-28
2023/09/30 09:07:57;;;;;;;6.60;4.63;;;;;;;25.84;34.66;97016.13;6125742;23;20029;-28
2023/09/30 09:23:51;;;;;;;8.85;5.05;;;;;;;26.07;34.91;97017.47;6124800;23;20033;-28
2023/09/30 09:39:53;;;;;;;6.95;4.15;;;;;;;26.29;34.86;97011.03;6125469;23;20064;-29
2023/09/30 09:53:07;;;;;;;5.00;3.58;;;;;;;26.30;35.01;97027.19;6127580;23;20080;-28
2023/09/30 10:09:01;;;;;;;8.80;3.65;;;;;;;26.23;35.09;97032.50;6127258;23;20340;-28
2023/09/30 10:24:59;;;;;;;4.78;3.80;;;;;;;26.40;34.54;97024.81;6125855;23;20028;-28
2023/09/30 10:40:52;;;;;;;6.47;3.90;;;;;;;26.44;34.50;97026.06;6126905;23;20072;-30
2023/09/30 10:43:33;;;;;;;6.68;3.88;;;;;;;26.43;34.79;97029.38;6127411;23;20428;-28
2023/09/30 10:46:05;;;;;;;8.60;3.83;;;;;;;26.43;34.15;97023.81;6127328;23;20006;-28
2023/09/30 11:44:14;;;;;;;6.03;3.35;;;;;;;26.54;32.48;96987.53;6126529;23;20460;-28
2023/09/30 11:57:18;;;;;;;6.47;3.00;;;;;;;26.60;32.16;96962.44;6126550;23;20016;-28
2023/09/30 12:13:34;;;;;;;3.70;3.10;;;;;;;26.64;30.84;96963.66;6126454;23;20085;-28
2023/09/30 12:29:26;;;;;;;3.67;2.60;;;;;;;26.61;29.81;96959.13;6125016;23;20028;-28
2023/09/30 12:42:40;;;;;;;3.75;2.50;;;;;;;26.68;31.26;96944.66;6126236;23;20041;-28
2023/09/30 12:58:32;;;;;;;4.10;2.40;;;;;;;26.67;31.47;96943.16;6125919;23;20013;-28
2023/09/30 13:14:27;;;;;;;2.92;2.25;;;;;;;26.65;30.70;96948.47;6125766;23;20022;-28
2023/09/30 13:44:37;;;;;;;;;;;;;;;26.70;30.64;96922.63;6125951;23;20021;-28
2023/09/30 14:00:29;;;;;;;4.95;2.42;;;;;;;26.77;31.27;96899.78;6125731;23;20017;-30
2023/09/30 14:13:42;;;;;;;4.93;2.72;;;;;;;26.72;31.15;96900.59;6125759;23;20021;-28
2023/09/30 14:29:34;;;;;;;3.50;2.20;;;;;;;26.86;30.41;96895.13;6124822;23;20344;-28
2023/09/30 14:45:26;;;;;;;5.55;3.33;;;;;;;26.96;28.86;96882.38;6127300;23;20093;-28
2023/09/30 15:01:20;;;;;;;4.80;2.50;;;;;;;26.93;29.62;96903.69;6126915;23;20048;-28
2023/09/30 15:14:27;;;;;;;3.83;2.55;;;;;;;26.95;29.73;96903.91;6127166;23;20205;-29
2023/09/30 15:30:40;;;;;;;4.15;2.15;;;;;;;27.03;29.84;96912.41;6125109;23;20032;-28
2023/09/30 15:46:33;;;;;;;2.80;1.95;;;;;;;26.90;29.27;96915.06;6126558;23;20080;-28
2023/09/30 15:48:58;;;;;;;8.27;2.50;;;;;;;27.00;29.04;96905.84;6126603;23;20436;-28
2023/09/30 16:01:29;;;;;;;9.40;3.88;;;;;;;27.15;29.69;96894.28;6126418;23;20017;-28
2023/09/30 16:31:21;;;;;;;4.63;3.33;;;;;;;27.11;33.74;96918.88;6124832;23;20037;-28
2023/09/30 16:47:13;;;;;;;4.75;3.80;;;;;;;27.09;35.60;96927.75;6126129;23;20016;-28
2023/09/30 17:00:39;;;;;;;7.50;3.58;;;;;;;26.95;36.31;96931.00;6125977;23;20041;-29
2023/09/30 17:03:06;;;;;;;6.78;3.83;;;;;;;26.96;36.27;96924.88;6125408;23;20417;-28
2023/09/30 17:15:51;;;;;;;13.70;4.03;;;;;;;26.87;36.46;96933.56;6126171;23;20029;-29
2023/09/30 17:31:44;;;;;;;5.97;3.75;;;;;;;26.65;36.68;96939.38;6124344;23;20032;-28
2023/09/30 17:47:36;;;;;;;12.73;4.35;;;;;;;26.64;37.46;96952.53;6125854;23;20514;-28
2023/09/30 18:01:34;;;;;;;8.80;4.03;;;;;;;26.48;37.61;96956.22;6125868;23;20073;-28
2023/09/30 18:18:16;;;;;;;12.60;5.18;;;;;;;26.39;38.83;96959.34;6136890;23;19920;-29
2023/09/30 18:48:56;;;;;;;6.13;3.78;;;;;;;26.34;40.03;96971.28;6097639;23;20033;-28
2023/09/30 18:51:21;;;;;;;7.43;4.85;;;;;;;26.38;40.11;96972.50;6098045;23;20478;-27
2023/09/30 19:03:53;;;;;;;6.78;4.25;;;;;;;26.25;40.77;96975.13;6097732;23;20016;-27
2023/09/30 19:17:14;;;;;;;7.55;4.22;;;;;;;26.32;40.58;96976.63;6097065;23;20024;-27
2023/09/30 19:33:05;;;;;;;6.20;4.65;;;;;;;26.21;40.92;96993.38;6112414;23;20033;-27
2023/09/30 19:48:58;;;;;;;8.45;4.40;;;;;;;26.18;40.30;97002.75;6126466;23;20024;-27
2023/09/30 20:04:50;;;;;;;8.13;4.30;;;;;;;26.25;38.81;97004.94;6126376;23;20372;-28
2023/09/30 20:17:55;;;;;;;7.00;3.72;;;;;;;26.13;38.67;96996.69;6126127;23;20048;-27
2023/09/30 20:33:48;;;;;;;4.88;3.42;;;;;;;26.27;38.33;97005.19;6124841;23;20029;-27
2023/09/30 20:49:40;;;;;;;7.18;4.22;;;;;;;25.87;38.89;97007.47;6125665;23;20051;-28
2023/09/30 20:52:06;;;;;;;5.68;3.92;;;;;;;25.81;39.05;97006.78;6126317;23;20413;-27
2023/09/30 20:54:32;;;;;;;9.38;4.20;;;;;;;25.82;39.12;97007.53;6126228;23;20057;-26
2023/09/30 21:03:41;;;;;;;7.43;4.15;;;;;;;25.98;39.06;97004.63;6126134;23;20037;-27
2023/09/30 21:19:34;;;;;;;5.28;3.38;;;;;;;25.98;35.83;97015.75;6125836;23;20013;-27
2023/09/30 21:35:26;;;;;;;7.22;3.72;;;;;;;26.04;33.04;97024.06;6124167;23;20049;-27
2023/09/30 21:51:19;;;;;;;7.13;3.63;;;;;;;26.02;35.45;97030.13;6127824;23;20012;-26
2023/09/30 22:07:12;;;;;;;15.13;4.22;;;;;;;25.87;39.51;97024.16;6127288;23;20104;-27
2023/09/30 22:36:33;;;;;;;5.80;3.00;;;;;;;25.91;34.27;97030.22;6124118;23;20102;-29
2023/09/30 22:52:26;;;;;;;4.60;2.70;;;;;;;25.89;32.85;97034.75;6127366;23;20021;-27
2023/09/30 23:08:20;;;;;;;4.22;3.00;;;;;;;25.79;34.44;97031.53;6126646;23;20049;-30
2023/09/30 23:21:25;;;;;;;6.60;3.10;;;;;;;25.68;35.18;97034.38;6127009;23;20466;-27
2023/09/30 23:37:17;;;;;;;5.50;3.00;;;;;;;25.74;35.49;97041.41;6128263;23;20053;-27
2023/09/30 23:53:10;;;;;;;7.47;2.45;;;;;;;25.87;33.30;97038.06;6126339;23;20063;-28
